Time;durP1;ratioP1;P1;durP2;ratioP2;P2;SDS_P1;SDS_P2;PMS_P1;PMS_P2;Temp;Humidity;BMP_temperature;BMP_pressure;BME280_temperature;BME280_humidity;BME280_pressure;Samples;Min_cycle;Max_cycle;Signal;HPM_P1;HPM_P2
2023/09/17 00:00:23;;;;;;;3.60;3.30;;;20.00;96.50;;;;;;5079898;28;20635;-76
2023/09/17 00:02:50;;;;;;;3.30;3.00;;;20.10;96.70;;;;;;5080323;28;20635;-75
2023/09/17 00:05:18;;;;;;;3.67;3.30;;;20.10;97.20;;;;;;5081534;28;20662;-76
2023/09/17 00:07:45;;;;;;;5.00;3.87;;;20.00;97.00;;;;;;5080634;28;21397;-75
2023/09/17 00:10:12;;;;;;;5.10;3.80;;;20.00;97.20;;;;;;5081959;28;20646;-76
2023/09/17 00:12:39;;;;;;;3.57;3.27;;;20.00;97.30;;;;;;5083653;28;20636;-75
2023/09/17 00:15:07;;;;;;;3.80;3.53;;;19.90;97.20;;;;;;5082047;28;20961;-75
2023/09/17 00:17:34;;;;;;;4.27;3.87;;;19.90;97.60;;;;;;5081469;28;20635;-76
2023/09/17 00:20:00;;;;;;;3.40;3.10;;;19.80;97.50;;;;;;5080060;28;20642;-75
2023/09/17 00:22:29;;;;;;;5.70;4.17;;;19.80;97.60;;;;;;5082528;28;21220;-76
2023/09/17 00:24:56;;;;;;;3.77;3.40;;;19.80;97.60;;;;;;5081633;28;21018;-75
2023/09/17 00:27:23;;;;;;;3.23;3.03;;;19.80;97.80;;;;;;5083853;28;20631;-76
2023/09/17 00:29:50;;;;;;;3.07;2.77;;;19.80;97.60;;;;;;5081343;28;20732;-76
2023/09/17 00:32:17;;;;;;;3.60;3.30;;;19.80;97.60;;;;;;5082569;28;20842;-75
2023/09/17 00:34:43;;;;;;;4.03;3.73;;;19.80;97.80;;;;;;5081947;28;20998;-76
2023/09/17 00:37:11;;;;;;;3.80;3.40;;;19.70;97.80;;;;;;5083247;28;20637;-76
2023/09/17 00:39:39;;;;;;;3.80;3.50;;;19.80;97.80;;;;;;5082504;28;20642;-75
2023/09/17 00:42:06;;;;;;;4.07;3.67;;;19.70;97.40;;;;;;5081557;28;20621;-75
2023/09/17 00:44:33;;;;;;;4.43;4.00;;;19.70;97.30;;;;;;5082249;28;20631;-75
2023/09/17 00:47:02;;;;;;;3.87;3.57;;;19.70;97.40;;;;;;5081320;28;20654;-76
2023/09/17 00:49:29;;;;;;;3.83;3.43;;;19.70;97.30;;;;;;5082337;28;20625;-74
2023/09/17 00:51:56;;;;;;;4.37;3.80;;;19.60;97.40;;;;;;5082057;28;20639;-76
2023/09/17 00:54:26;;;;;;;3.83;3.53;;;19.60;97.80;;;;;;5081322;28;20627;-75
2023/09/17 00:56:54;;;;;;;4.23;3.80;;;19.60;97.80;;;;;;5080788;28;20628;-76
2023/09/17 00:59:21;;;;;;;4.60;3.57;;;19.50;97.80;;;;;;5082107;28;20630;-75
2023/09/17 01:01:49;;;;;;;3.60;3.03;;;19.40;98.00;;;;;;5082039;28;20710;-76
2023/09/17 01:04:17;;;;;;;5.50;4.67;;;19.40;97.80;;;;;;5081449;28;20631;-76
2023/09/17 01:06:46;;;;;;;4.03;3.63;;;19.30;97.90;;;;;;5080376;28;20765;-77
2023/09/17 01:09:15;;;;;;;4.17;3.77;;;19.40;98.00;;;;;;5081958;28;21214;-77
2023/09/17 01:11:43;;;;;;;4.63;4.23;;;19.40;98.60;;;;;;5082475;28;21265;-76
2023/09/17 01:14:14;;;;;;;4.63;3.87;;;19.20;98.80;;;;;;5081910;28;20685;-77
2023/09/17 01:16:42;;;;;;;4.63;4.20;;;19.00;99.10;;;;;;5081955;28;20625;-77
2023/09/17 01:19:16;;;;;;;3.30;3.10;;;19.00;99.50;;;;;;5079646;28;20632;-76
2023/09/17 01:21:52;;;;;;;4.20;3.50;;;19.10;99.20;;;;;;5082008;28;21689;-76
2023/09/17 01:24:28;;;;;;;4.23;3.80;;;19.20;99.20;;;;;;5081816;28;21081;-76
2023/09/17 01:27:03;;;;;;;4.93;4.07;;;19.10;99.30;;;;;;5081418;28;21528;-76
2023/09/17 01:29:38;;;;;;;4.00;3.70;;;19.10;99.10;;;;;;5079127;28;21217;-77
2023/09/17 01:32:06;;;;;;;3.87;3.47;;;19.10;99.20;;;;;;5081587;28;20661;-77
2023/09/17 01:34:37;;;;;;;3.90;3.60;;;19.20;99.10;;;;;;5082474;28;20635;-77
2023/09/17 01:37:09;;;;;;;3.23;2.93;;;19.30;99.10;;;;;;5082122;28;20675;-76
2023/09/17 01:39:46;;;;;;;6.00;4.00;;;19.40;99.00;;;;;;5081630;28;20636;-77
2023/09/17 01:42:16;;;;;;;3.90;3.50;;;19.20;99.10;;;;;;5081481;28;20663;-76
2023/09/17 01:44:46;;;;;;;3.80;3.50;;;19.30;99.20;;;;;;5080269;28;20629;-77
2023/09/17 01:47:14;;;;;;;4.20;3.80;;;19.30;99.20;;;;;;5081241;28;21007;-76
2023/09/17 01:49:43;;;;;;;4.70;4.20;;;19.50;99.30;;;;;;5081194;28;20633;-76
2023/09/17 01:52:10;;;;;;;4.53;4.10;;;19.40;99.10;;;;;;5080394;28;20674;-76
2023/09/17 01:54:37;;;;;;;5.40;4.67;;;19.40;99.30;;;;;;5080169;28;22222;-77
2023/09/17 01:57:04;;;;;;;3.97;3.67;;;19.40;99.30;;;;;;5080498;28;20629;-77
2023/09/17 01:59:33;;;;;;;4.77;4.17;;;19.40;99.30;;;;;;5082246;28;20638;-77
2023/09/17 02:02:00;;;;;;;4.17;3.77;;;19.40;99.20;;;;;;5081688;28;20662;-76
2023/09/17 02:04:27;;;;;;;3.57;3.27;;;19.50;99.40;;;;;;5080960;28;21124;-77
2023/09/17 02:06:54;;;;;;;4.10;3.70;;;19.40;99.50;;;;;;5080078;28;20652;-77
2023/09/17 02:09:21;;;;;;;4.57;4.17;;;19.50;99.50;;;;;;5080917;28;20810;-77
2023/09/17 02:11:49;;;;;;;4.80;4.37;;;19.40;99.70;;;;;;5085737;28;20766;-76
2023/09/17 02:14:16;;;;;;;4.50;3.80;;;19.40;99.90;;;;;;5085620;28;20636;-76
2023/09/17 02:16:46;;;;;;;3.37;3.17;;;19.20;99.90;;;;;;5085439;28;20620;-77
2023/09/17 02:19:14;;;;;;;4.00;3.60;;;19.20;99.90;;;;;;5082618;28;21107;-77
2023/09/17 02:21:41;;;;;;;4.60;3.73;;;19.20;99.90;;;;;;5085811;28;20633;-77
2023/09/17 02:24:09;;;;;;;3.70;3.33;;;19.10;99.90;;;;;;5085267;28;20800;-77
2023/09/17 02:26:37;;;;;;;4.83;3.73;;;19.00;99.90;;;;;;5083831;28;20762;-76
2023/09/17 02:29:05;;;;;;;4.20;3.73;;;18.90;99.90;;;;;;5084529;28;20695;-76
2023/09/17 02:31:32;;;;;;;5.93;4.10;;;18.90;99.90;;;;;;5084696;28;20994;-76
2023/09/17 02:34:02;;;;;;;4.47;4.07;;;18.80;99.90;;;;;;5085530;28;20621;-76
2023/09/17 02:36:30;;;;;;;6.80;5.03;;;18.80;99.90;;;;;;5082836;28;20622;-76
2023/09/17 02:38:57;;;;;;;4.60;4.20;;;18.70;99.90;;;;;;5085135;28;21040;-76
2023/09/17 02:41:25;;;;;;;4.40;3.50;;;18.70;99.90;;;;;;5083479;28;20624;-76
2023/09/17 02:43:53;;;;;;;4.70;4.27;;;18.60;99.90;;;;;;5084743;28;20624;-76
2023/09/17 02:46:21;;;;;;;4.80;4.07;;;18.60;99.90;;;;;;5083671;28;20878;-76
2023/09/17 02:48:50;;;;;;;4.57;4.17;;;18.50;99.90;;;;;;5084600;28;20744;-77
2023/09/17 02:51:20;;;;;;;5.77;4.50;;;18.50;99.90;;;;;;5083998;28;21703;-76
2023/09/17 02:53:47;;;;;;;4.83;4.40;;;18.40;99.90;;;;;;5084157;28;20635;-77
2023/09/17 02:56:14;;;;;;;4.20;3.80;;;18.40;99.90;;;;;;5083757;28;20619;-77
2023/09/17 02:58:41;;;;;;;4.53;4.13;;;18.40;99.90;;;;;;5084711;28;20632;-77
2023/09/17 03:01:15;;;;;;;5.97;5.37;;;18.50;99.90;;;;;;5083231;28;21193;-77
2023/09/17 03:03:42;;;;;;;5.20;4.70;;;18.50;99.90;;;;;;5083997;28;20665;-77
2023/09/17 03:06:10;;;;;;;6.00;3.60;;;18.50;99.90;;;;;;5083536;28;20652;-77
2023/09/17 03:08:41;;;;;;;5.27;4.57;;;18.60;99.90;;;;;;5084309;28;20995;-77
2023/09/17 03:11:08;;;;;;;4.97;4.47;;;18.60;99.90;;;;;;5084094;28;21328;-77
2023/09/17 03:13:36;;;;;;;4.73;4.33;;;18.60;99.90;;;;;;5083562;28;20641;-76
2023/09/17 03:16:03;;;;;;;6.57;5.53;;;18.60;99.90;;;;;;5082422;28;20638;-76
2023/09/17 03:18:30;;;;;;;6.53;5.13;;;18.60;99.90;;;;;;5083199;28;20635;-76
2023/09/17 03:20:57;;;;;;;5.47;4.40;;;18.60;99.90;;;;;;5084480;28;20637;-76
2023/09/17 03:23:24;;;;;;;4.53;3.80;;;18.50;99.90;;;;;;5085014;28;21245;-76
2023/09/17 03:25:52;;;;;;;5.20;4.70;;;18.40;99.90;;;;;;5083243;28;21007;-76
2023/09/17 03:28:19;;;;;;;4.93;4.27;;;18.40;99.90;;;;;;5083101;28;20627;-76
2023/09/17 03:30:45;;;;;;;5.23;4.73;;;18.40;99.90;;;;;;5084743;28;20632;-76
2023/09/17 03:33:13;;;;;;;6.40;5.80;;;18.30;99.90;;;;;;5083577;28;20634;-76
2023/09/17 03:35:40;;;;;;;7.30;4.93;;;18.10;99.90;;;;;;5083506;28;20635;-76
2023/09/17 03:38:07;;;;;;;5.93;4.47;;;18.20;99.90;;;;;;5083085;28;20636;-76
2023/09/17 03:40:35;;;;;;;6.63;4.80;;;18.20;99.90;;;;;;5083337;28;21218;-76
2023/09/17 03:43:03;;;;;;;5.40;4.10;;;18.20;99.90;;;;;;5083613;28;20621;-76
2023/09/17 03:45:30;;;;;;;5.23;4.57;;;18.20;99.90;;;;;;5083172;28;20638;-76
2023/09/17 03:47:58;;;;;;;6.40;4.70;;;18.20;99.90;;;;;;5082971;28;20761;-76
2023/09/17 03:50:25;;;;;;;4.90;4.50;;;18.10;99.90;;;;;;5083395;28;20623;-76
2023/09/17 03:52:54;;;;;;;5.17;4.67;;;18.10;99.90;;;;;;5082477;28;20627;-76
2023/09/17 03:55:23;;;;;;;5.43;4.67;;;18.00;99.90;;;;;;5083185;28;20995;-77
2023/09/17 03:57:58;;;;;;;4.77;4.30;;;17.90;99.90;;;;;;5081350;28;20632;-78
2023/09/17 04:00:26;;;;;;;6.13;5.37;;;17.80;99.90;;;;;;5084176;28;20626;-77
2023/09/17 04:02:54;;;;;;;6.40;5.80;;;17.70;99.90;;;;;;5082964;28;21067;-76
2023/09/17 04:05:21;;;;;;;6.70;5.37;;;17.60;99.90;;;;;;5082832;28;21740;-77
2023/09/17 04:07:49;;;;;;;5.37;4.90;;;17.60;99.90;;;;;;5082162;28;21280;-76
2023/09/17 04:10:17;;;;;;;6.57;5.10;;;17.70;99.90;;;;;;5084417;28;20916;-76
2023/09/17 04:12:44;;;;;;;6.03;5.43;;;17.60;99.90;;;;;;5082136;28;21112;-76
2023/09/17 04:15:16;;;;;;;5.50;4.77;;;17.70;99.90;;;;;;5082299;28;20774;-77
2023/09/17 04:17:45;;;;;;;6.17;5.50;;;17.70;99.90;;;;;;5083278;28;20727;-76
2023/09/17 04:20:13;;;;;;;5.93;5.27;;;17.70;99.90;;;;;;5083733;28;20623;-76
2023/09/17 04:22:40;;;;;;;6.00;5.40;;;17.70;99.90;;;;;;5082110;28;20747;-77
2023/09/17 04:25:09;;;;;;;5.53;4.97;;;17.70;99.90;;;;;;5083522;28;20641;-77
2023/09/17 04:27:36;;;;;;;6.30;4.93;;;17.80;99.90;;;;;;5082434;28;20700;-77
2023/09/17 04:30:05;;;;;;;5.63;5.03;;;17.70;99.90;;;;;;5082713;28;20636;-76
2023/09/17 04:32:37;;;;;;;5.57;5.00;;;17.60;99.90;;;;;;5082282;28;21353;-77
2023/09/17 04:35:08;;;;;;;7.27;6.20;;;17.50;99.90;;;;;;5082347;28;20694;-77
2023/09/17 04:37:36;;;;;;;5.90;5.27;;;17.50;99.90;;;;;;5081904;28;20633;-77
2023/09/17 04:40:08;;;;;;;5.33;4.80;;;17.50;99.90;;;;;;5081590;28;20629;-78
2023/09/17 04:42:35;;;;;;;6.30;4.83;;;17.50;99.90;;;;;;5082482;28;21208;-77
2023/09/17 04:45:04;;;;;;;7.70;6.10;;;17.50;99.90;;;;;;5082069;28;21845;-76
2023/09/17 04:47:30;;;;;;;6.80;4.63;;;17.50;99.90;;;;;;5082701;28;20663;-76
2023/09/17 04:49:57;;;;;;;6.10;5.50;;;17.50;99.90;;;;;;5081550;28;20629;-76
2023/09/17 04:52:25;;;;;;;5.00;4.53;;;17.50;99.90;;;;;;5081430;28;20771;-76
2023/09/17 04:54:52;;;;;;;5.10;4.63;;;17.60;99.90;;;;;;5082049;28;20836;-76
2023/09/17 04:57:22;;;;;;;5.67;5.13;;;17.60;99.90;;;;;;5083703;28;20652;-76
2023/09/17 04:59:50;;;;;;;7.70;5.17;;;17.50;99.90;;;;;;5080828;28;20732;-77
2023/09/17 05:02:18;;;;;;;5.57;5.00;;;17.70;99.90;;;;;;5081842;28;20627;-77
2023/09/17 05:04:46;;;;;;;4.97;4.57;;;17.60;99.90;;;;;;5081537;28;20716;-76
2023/09/17 05:07:14;;;;;;;5.67;4.90;;;17.70;99.90;;;;;;5083040;28;20984;-76
2023/09/17 05:09:42;;;;;;;7.40;5.10;;;17.60;99.90;;;;;;5082944;28;20642;-77
2023/09/17 05:12:09;;;;;;;7.13;5.67;;;17.60;99.90;;;;;;5081803;28;20604;-76
2023/09/17 05:14:36;;;;;;;6.33;5.43;;;17.50;99.90;;;;;;5080693;28;20633;-76
2023/09/17 05:17:03;;;;;;;5.90;5.03;;;17.50;99.90;;;;;;5081457;28;20628;-77
2023/09/17 05:19:30;;;;;;;6.00;5.40;;;17.50;99.90;;;;;;5081290;28;20659;-76
2023/09/17 05:21:57;;;;;;;5.90;5.40;;;17.50;99.90;;;;;;5082448;28;20631;-77
2023/09/17 05:24:24;;;;;;;4.90;4.50;;;17.50;99.90;;;;;;5080659;28;21079;-77
2023/09/17 05:26:53;;;;;;;5.47;5.07;;;17.50;99.90;;;;;;5080504;28;20735;-75
2023/09/17 05:29:19;;;;;;;6.00;5.40;;;17.60;99.90;;;;;;5081316;28;20630;-78
2023/09/17 05:31:46;;;;;;;6.27;5.07;;;17.70;99.90;;;;;;5081156;28;20624;-78
2023/09/17 05:34:14;;;;;;;6.00;4.90;;;17.80;99.90;;;;;;5081605;28;20851;-78
2023/09/17 05:36:53;;;;;;;6.43;5.23;;;17.90;99.90;;;;;;5077051;28;21206;-78
2023/09/17 05:39:20;;;;;;;5.33;4.70;;;17.80;99.90;;;;;;5079637;28;20622;-78
2023/09/17 05:41:47;;;;;;;4.83;4.40;;;18.00;99.90;;;;;;5081254;28;20635;-79
2023/09/17 05:44:15;;;;;;;5.50;5.00;;;18.00;99.90;;;;;;5080411;28;20631;-78
2023/09/17 05:46:56;;;;;;;4.90;4.43;;;18.10;99.90;;;;;;5078452;28;20739;-80
2023/09/17 05:49:25;;;;;;;7.10;6.43;;;18.20;99.90;;;;;;5079711;28;20632;-80
2023/09/17 05:51:52;;;;;;;5.27;4.77;;;18.20;99.90;;;;;;5078180;28;20627;-80
2023/09/17 05:54:21;;;;;;;4.60;3.80;;;18.30;99.90;;;;;;5080327;28;20608;-80
2023/09/17 05:56:58;;;;;;;6.63;5.53;;;18.30;99.90;;;;;;5081252;28;22528;-80
2023/09/17 05:59:26;;;;;;;5.00;4.60;;;18.30;99.90;;;;;;5080223;28;21247;-80
2023/09/17 06:01:53;;;;;;;5.50;4.87;;;18.40;99.90;;;;;;5078157;28;20628;-80
2023/09/17 06:04:21;;;;;;;5.33;4.80;;;18.50;99.90;;;;;;5078033;28;20620;-80
2023/09/17 06:06:47;;;;;;;6.00;5.40;;;18.70;99.90;;;;;;5080219;28;20663;-79
2023/09/17 06:09:14;;;;;;;6.30;5.00;;;18.70;99.90;;;;;;5083266;28;20638;-79
2023/09/17 06:11:41;;;;;;;4.90;4.30;;;18.70;99.90;;;;;;5078675;28;21354;-79
2023/09/17 06:14:11;;;;;;;5.63;5.13;;;18.70;99.90;;;;;;5079271;28;20643;-77
2023/09/17 06:16:39;;;;;;;5.07;4.57;;;18.70;99.90;;;;;;5079378;28;20751;-78
2023/09/17 06:19:06;;;;;;;4.60;4.20;;;18.70;99.90;;;;;;5081317;28;20620;-78
2023/09/17 06:21:33;;;;;;;5.23;4.73;;;18.80;99.90;;;;;;5077684;28;20635;-77
2023/09/17 06:24:00;;;;;;;4.90;4.40;;;18.80;99.90;;;;;;5080196;28;21118;-78
2023/09/17 06:26:26;;;;;;;5.07;4.57;;;18.80;99.90;;;;;;5074934;28;20632;-79
2023/09/17 06:28:53;;;;;;;5.53;5.03;;;19.00;99.90;;;;;;5080240;28;20629;-78
2023/09/17 06:31:49;;;;;;;5.70;4.43;;;19.10;99.90;;;;;;5080287;28;20892;-78
2023/09/17 06:34:15;;;;;;;4.40;3.90;;;19.10;99.90;;;;;;5074677;28;20627;-79
2023/09/17 06:36:42;;;;;;;4.93;4.53;;;19.20;99.90;;;;;;5080066;28;21074;-79
2023/09/17 06:39:12;;;;;;;5.97;5.40;;;19.30;99.90;;;;;;5079022;28;21336;-79
2023/09/17 06:41:39;;;;;;;5.20;4.47;;;19.40;99.90;;;;;;5079146;28;21840;-79
2023/09/17 06:44:09;;;;;;;5.43;4.40;;;19.60;99.90;;;;;;5080244;28;20658;-79
2023/09/17 06:46:36;;;;;;;4.23;3.83;;;19.70;99.90;;;;;;5075139;28;20635;-77
2023/09/17 06:49:04;;;;;;;4.60;4.20;;;19.80;99.90;;;;;;5077770;28;21019;-75
2023/09/17 06:55:36;;;;;;;5.57;4.30;;;19.90;99.90;;;;;;4974958;28;20635;-74
2023/09/17 06:58:03;;;;;;;6.60;4.10;;;20.10;99.90;;;;;;5057327;28;21000;-75
2023/09/17 07:00:32;;;;;;;4.77;4.30;;;20.20;99.90;;;;;;5081056;28;20630;-76
2023/09/17 07:02:59;;;;;;;3.70;3.40;;;20.40;99.90;;;;;;5080566;28;20634;-74
2023/09/17 07:05:27;;;;;;;3.73;3.43;;;20.50;99.90;;;;;;5081167;28;21334;-76
2023/09/17 07:07:55;;;;;;;6.80;4.47;;;20.60;99.90;;;;;;5082261;28;20658;-75
2023/09/17 07:10:21;;;;;;;4.33;4.03;;;20.60;99.90;;;;;;5084176;28;20632;-75
2023/09/17 07:12:49;;;;;;;3.93;3.63;;;20.60;99.90;;;;;;5081917;28;20630;-76
2023/09/17 07:15:20;;;;;;;4.53;4.10;;;20.60;99.90;;;;;;5081601;28;20620;-76
2023/09/17 07:17:48;;;;;;;8.07;4.20;;;20.60;99.90;;;;;;5081370;28;20665;-77
2023/09/17 07:20:19;;;;;;;4.07;3.67;;;20.60;99.90;;;;;;5080110;28;20631;-75
2023/09/17 07:22:48;;;;;;;3.97;3.67;;;20.70;99.90;;;;;;5074364;28;21128;-75
2023/09/17 07:25:15;;;;;;;3.67;3.37;;;20.80;99.90;;;;;;5080998;28;20635;-75
2023/09/17 07:27:42;;;;;;;3.40;3.10;;;20.80;99.90;;;;;;5082399;28;20643;-75
2023/09/17 07:30:12;;;;;;;3.67;3.37;;;20.90;99.60;;;;;;5082128;28;20628;-76
2023/09/17 07:32:39;;;;;;;3.77;3.50;;;21.00;99.70;;;;;;5082720;28;20965;-76
2023/09/17 07:35:08;;;;;;;3.67;3.37;;;21.10;98.90;;;;;;5082817;28;21161;-76
2023/09/17 07:37:38;;;;;;;5.53;2.90;;;21.10;99.00;;;;;;5080824;28;20639;-75
2023/09/17 07:40:07;;;;;;;4.20;3.80;;;21.20;98.70;;;;;;5081333;28;20734;-77
2023/09/17 07:42:34;;;;;;;3.93;3.63;;;21.30;98.50;;;;;;5082163;28;20715;-76
2023/09/17 07:45:01;;;;;;;5.53;3.70;;;21.30;98.30;;;;;;5083798;28;20704;-77
2023/09/17 07:47:28;;;;;;;4.33;3.93;;;21.20;98.90;;;;;;5082212;28;20663;-77
2023/09/17 07:49:54;;;;;;;4.47;4.07;;;21.30;98.90;;;;;;5081594;28;20651;-77
2023/09/17 07:52:21;;;;;;;4.90;4.20;;;21.40;98.80;;;;;;5083167;28;21260;-77
2023/09/17 07:54:48;;;;;;;5.87;5.10;;;21.40;99.10;;;;;;5080635;28;20621;-77
2023/09/17 07:57:16;;;;;;;3.57;3.27;;;21.50;99.00;;;;;;5077308;28;20639;-77
2023/09/17 07:59:43;;;;;;;5.23;4.27;;;21.70;99.10;;;;;;5081817;28;20632;-76
2023/09/17 08:02:10;;;;;;;4.10;3.70;;;21.70;99.10;;;;;;5077755;28;20632;-76
2023/09/17 08:04:37;;;;;;;4.53;4.13;;;21.70;98.90;;;;;;5081457;28;20650;-76
2023/09/17 08:07:04;;;;;;;5.33;3.73;;;21.70;99.00;;;;;;5073628;28;20630;-77
2023/09/17 08:09:39;;;;;;;4.63;4.23;;;21.60;99.30;;;;;;5075933;28;21027;-82
2023/09/17 08:12:10;;;;;;;5.27;4.10;;;21.70;99.10;;;;;;5077721;28;20635;-86
2023/09/17 08:14:48;;;;;;;5.00;4.50;;;21.80;98.70;;;;;;5079596;28;20627;-84
2023/09/17 08:17:15;;;;;;;5.40;3.80;;;21.90;98.50;;;;;;5076569;28;21330;-83
2023/09/17 08:19:48;;;;;;;4.17;3.27;;;22.10;98.80;;;;;;5077488;28;21268;-83
2023/09/17 08:22:17;;;;;;;5.03;3.87;;;22.20;98.10;;;;;;5080234;28;20620;-83
2023/09/17 08:24:44;;;;;;;3.37;2.93;;;22.20;97.80;;;;;;5081602;28;20730;-84
2023/09/17 08:28:06;;;;;;;3.30;3.00;;;22.30;97.50;;;;;;5081070;28;20645;-85
2023/09/17 08:30:35;;;;;;;5.07;2.80;;;22.40;96.80;;;;;;5074810;28;20739;-82
2023/09/17 08:33:04;;;;;;;3.10;2.90;;;22.50;95.60;;;;;;5079399;28;20632;-80
2023/09/17 08:35:36;;;;;;;4.33;3.60;;;22.60;95.80;;;;;;5080512;28;20753;-79
2023/09/17 08:38:05;;;;;;;4.33;3.83;;;22.60;95.70;;;;;;5081823;28;20631;-80
2023/09/17 08:40:40;;;;;;;3.13;2.90;;;22.60;96.10;;;;;;5082545;28;20636;-80
2023/09/17 08:43:09;;;;;;;3.10;2.80;;;22.60;96.00;;;;;;5079772;28;21907;-79
2023/09/17 08:45:37;;;;;;;6.30;3.43;;;22.60;96.60;;;;;;5077564;28;20636;-79
2023/09/17 08:48:05;;;;;;;3.07;2.77;;;22.60;96.80;;;;;;5079361;28;20648;-80
2023/09/17 08:50:35;;;;;;;9.90;3.30;;;22.70;96.20;;;;;;5079884;28;20631;-79
2023/09/17 08:53:09;;;;;;;4.10;3.00;;;22.70;96.30;;;;;;5080555;28;20643;-81
2023/09/17 08:55:36;;;;;;;2.77;2.57;;;22.80;96.00;;;;;;5079698;28;20693;-80
2023/09/17 08:58:24;;;;;;;5.40;3.17;;;22.90;95.30;;;;;;5078192;28;20617;-80
2023/09/17 09:00:57;;;;;;;3.20;2.50;;;23.00;95.90;;;;;;5077205;28;20630;-80
2023/09/17 09:03:27;;;;;;;2.80;2.60;;;23.20;95.10;;;;;;5078476;28;20813;-79
2023/09/17 09:05:58;;;;;;;3.30;3.00;;;23.40;94.50;;;;;;5073245;28;20628;-79
2023/09/17 09:08:26;;;;;;;2.57;2.37;;;23.50;94.80;;;;;;5079667;28;20652;-80
2023/09/17 09:10:53;;;;;;;2.50;2.30;;;23.60;94.60;;;;;;5080181;28;21247;-81
2023/09/17 09:13:21;;;;;;;3.30;3.07;;;23.80;94.10;;;;;;5080812;28;21852;-80
2023/09/17 09:15:49;;;;;;;3.87;2.80;;;23.90;93.90;;;;;;5094806;27;20777;-81
2023/09/17 09:18:19;;;;;;;3.40;3.10;;;24.00;94.50;;;;;;5078932;28;20669;-81
2023/09/17 09:20:47;;;;;;;7.10;2.53;;;24.20;94.90;;;;;;5081936;28;20731;-80
2023/09/17 09:23:14;;;;;;;2.30;2.20;;;24.30;91.90;;;;;;5081291;28;21279;-80
2023/09/17 09:25:41;;;;;;;2.83;2.57;;;24.30;92.00;;;;;;5082235;28;20636;-80
2023/09/17 09:28:08;;;;;;;2.67;2.23;;;24.40;92.00;;;;;;5082429;28;20777;-80
2023/09/17 09:30:37;;;;;;;3.13;2.80;;;24.40;92.40;;;;;;5078845;28;20616;-81
2023/09/17 09:33:05;;;;;;;7.73;2.93;;;24.60;90.90;;;;;;5080832;28;20628;-80
2023/09/17 09:35:34;;;;;;;2.93;2.53;;;24.90;90.80;;;;;;5080425;28;20643;-80
2023/09/17 09:38:02;;;;;;;2.77;2.47;;;25.00;91.20;;;;;;5074051;28;20637;-80
2023/09/17 09:40:30;;;;;;;3.80;2.70;;;25.00;90.40;;;;;;5074135;28;20625;-79
2023/09/17 09:43:03;;;;;;;1.80;1.70;;;25.00;90.60;;;;;;5079488;28;20630;-78
2023/09/17 09:46:02;;;;;;;3.77;2.73;;;25.20;89.90;;;;;;5073198;28;20697;-82
2023/09/17 09:48:31;;;;;;;2.60;2.40;;;25.30;88.00;;;;;;5030931;28;21311;-76
2023/09/17 09:51:01;;;;;;;2.60;2.40;;;25.50;88.30;;;;;;5078789;28;21873;-76
2023/09/17 09:53:29;;;;;;;4.87;2.40;;;25.50;89.10;;;;;;5078030;28;20628;-76
2023/09/17 09:55:57;;;;;;;1.97;1.77;;;25.50;88.80;;;;;;5074603;28;20669;-76
2023/09/17 09:58:25;;;;;;;3.17;2.50;;;25.80;86.70;;;;;;5071769;28;20860;-82
2023/09/17 10:00:55;;;;;;;2.53;2.00;;;25.80;85.80;;;;;;5080341;28;20635;-81
2023/09/17 10:03:25;;;;;;;3.17;2.03;;;25.90;84.50;;;;;;5076644;28;20629;-82
2023/09/17 10:05:52;;;;;;;3.03;1.93;;;26.10;84.60;;;;;;5078258;28;21252;-80
2023/09/17 10:08:22;;;;;;;3.03;2.20;;;26.00;86.10;;;;;;5067158;28;21146;-78
2023/09/17 10:10:55;;;;;;;5.50;2.20;;;25.90;85.60;;;;;;5073224;28;20628;-75
2023/09/17 10:13:22;;;;;;;3.10;2.80;;;25.90;85.90;;;;;;5076056;28;21178;-76
2023/09/17 10:15:49;;;;;;;3.07;2.30;;;26.00;82.30;;;;;;5077468;28;20639;-76
2023/09/17 10:18:23;;;;;;;4.27;2.37;;;26.20;83.20;;;;;;5077673;28;20783;-76
2023/09/17 10:20:51;;;;;;;3.63;2.67;;;26.40;80.90;;;;;;5079307;28;20624;-76
2023/09/17 10:23:20;;;;;;;6.07;2.53;;;26.30;82.20;;;;;;5078570;28;20621;-76
2023/09/17 10:25:49;;;;;;;2.23;2.13;;;26.30;82.10;;;;;;5079725;28;20634;-76
2023/09/17 10:28:17;;;;;;;5.80;2.30;;;26.40;83.30;;;;;;5081439;28;20653;-74
2023/09/17 10:30:45;;;;;;;2.30;2.10;;;26.60;83.60;;;;;;5081464;28;20609;-76
2023/09/17 10:33:13;;;;;;;2.23;2.03;;;26.60;83.30;;;;;;5085102;28;20650;-76
2023/09/17 10:35:41;;;;;;;1.93;1.83;;;26.70;83.00;;;;;;5084543;28;20639;-76
2023/09/17 10:38:09;;;;;;;3.10;2.20;;;26.80;81.90;;;;;;5085438;28;21373;-76
2023/09/17 10:40:38;;;;;;;9.87;2.27;;;26.80;79.20;;;;;;5085221;28;20640;-74
2023/09/17 10:43:08;;;;;;;9.90;3.50;;;26.80;80.20;;;;;;5084266;28;21005;-76
2023/09/17 10:45:37;;;;;;;4.80;2.50;;;27.10;78.60;;;;;;5082664;28;20627;-74
2023/09/17 10:48:05;;;;;;;3.33;2.20;;;27.00;80.40;;;;;;5084892;28;20778;-74
2023/09/17 10:50:34;;;;;;;2.53;2.07;;;27.00;80.60;;;;;;5084296;28;20635;-74
2023/09/17 10:53:01;;;;;;;3.73;2.77;;;27.00;81.40;;;;;;5084839;28;20616;-74
2023/09/17 10:55:34;;;;;;;5.40;2.27;;;27.10;80.60;;;;;;5083760;28;20712;-75
2023/09/17 10:58:10;;;;;;;3.57;2.40;;;27.20;79.00;;;;;;5085672;28;20640;-75
2023/09/17 11:00:39;;;;;;;2.37;2.17;;;27.20;79.40;;;;;;5083170;28;20631;-75
2023/09/17 11:03:06;;;;;;;5.57;1.77;;;27.20;78.80;;;;;;5085011;28;20636;-75
2023/09/17 11:05:35;;;;;;;2.03;1.83;;;27.20;77.90;;;;;;5084255;28;20628;-75
2023/09/17 11:08:04;;;;;;;2.00;1.90;;;27.20;79.20;;;;;;5084547;28;20628;-75
2023/09/17 11:10:31;;;;;;;2.43;1.70;;;27.40;77.50;;;;;;5083705;28;21190;-75
2023/09/17 11:13:04;;;;;;;3.00;1.97;;;27.50;77.80;;;;;;5083728;28;20670;-75
2023/09/17 11:15:31;;;;;;;3.60;2.37;;;27.50;73.50;;;;;;5083966;28;20624;-75
2023/09/17 11:18:00;;;;;;;1.90;1.50;;;27.50;72.60;;;;;;5085579;28;20682;-75
2023/09/17 11:20:27;;;;;;;3.00;2.20;;;27.50;73.60;;;;;;5084294;28;20726;-75
2023/09/17 11:22:56;;;;;;;4.00;2.20;;;27.40;74.20;;;;;;5083873;28;21764;-74
2023/09/17 11:25:34;;;;;;;2.10;1.40;;;27.40;75.20;;;;;;5083005;28;20635;-75
2023/09/17 11:28:12;;;;;;;3.67;1.60;;;27.30;71.80;;;;;;5082877;28;20619;-74
2023/09/17 11:30:58;;;;;;;1.70;1.57;;;27.30;73.90;;;;;;5083562;28;20704;-75
2023/09/17 11:33:27;;;;;;;1.97;1.70;;;27.40;71.70;;;;;;5083890;28;20635;-75
2023/09/17 11:35:54;;;;;;;4.00;1.30;;;27.40;72.10;;;;;;5083976;28;20643;-75
2023/09/17 11:38:25;;;;;;;2.30;1.73;;;27.50;72.60;;;;;;5084320;28;20619;-75
2023/09/17 11:41:06;;;;;;;1.80;1.70;;;27.50;72.50;;;;;;5083634;28;20624;-75
2023/09/17 11:43:36;;;;;;;3.70;2.10;;;27.80;71.70;;;;;;5082774;28;21177;-75
2023/09/17 11:46:05;;;;;;;2.63;2.07;;;27.80;73.70;;;;;;5082427;28;20631;-75
2023/09/17 11:48:33;;;;;;;2.03;1.40;;;27.80;72.20;;;;;;5083864;28;20624;-75
2023/09/17 11:51:24;;;;;;;3.07;1.53;;;27.90;72.50;;;;;;5082828;28;20628;-75
2023/09/17 11:53:56;;;;;;;2.20;2.00;;;27.90;71.00;;;;;;5082859;28;20635;-75
2023/09/17 11:56:23;;;;;;;3.20;1.87;;;27.90;72.40;;;;;;5082217;28;20659;-75
2023/09/17 11:59:03;;;;;;;2.23;1.60;;;28.00;71.30;;;;;;5084215;28;21180;-75
2023/09/17 12:01:33;;;;;;;4.67;1.60;;;28.10;69.80;;;;;;5083658;28;20623;-75
2023/09/17 12:04:01;;;;;;;2.73;1.90;;;28.20;69.90;;;;;;5084161;28;20625;-75
2023/09/17 12:06:28;;;;;;;4.20;1.80;;;28.10;71.30;;;;;;5083346;28;20689;-74
2023/09/17 12:08:58;;;;;;;2.70;1.67;;;28.00;72.70;;;;;;5083515;28;20682;-75
2023/09/17 12:11:28;;;;;;;4.50;2.03;;;28.10;70.30;;;;;;5083796;28;21225;-75
2023/09/17 12:13:57;;;;;;;2.13;1.93;;;28.00;69.60;;;;;;5083803;28;20723;-74
2023/09/17 12:16:25;;;;;;;4.17;1.80;;;28.10;69.40;;;;;;5078267;28;20634;-74
2023/09/17 12:18:53;;;;;;;2.10;1.97;;;28.20;68.70;;;;;;5080168;28;20979;-75
2023/09/17 12:21:22;;;;;;;3.63;2.03;;;28.20;70.90;;;;;;5082523;28;21226;-74
2023/09/17 12:23:56;;;;;;;2.00;1.90;;;28.10;72.50;;;;;;5082878;28;20631;-75
2023/09/17 12:26:25;;;;;;;3.83;2.23;;;28.20;71.40;;;;;;5082353;28;20635;-75
2023/09/17 12:28:51;;;;;;;3.27;1.77;;;28.20;70.70;;;;;;5083097;28;21220;-75
2023/09/17 12:31:18;;;;;;;5.70;2.40;;;28.20;69.10;;;;;;5081124;28;21191;-75
2023/09/17 12:33:47;;;;;;;1.90;1.80;;;28.20;69.70;;;;;;5081645;28;20643;-75
2023/09/17 12:36:13;;;;;;;2.50;1.90;;;28.30;70.40;;;;;;5083195;28;20830;-75
2023/09/17 12:38:42;;;;;;;2.00;1.80;;;28.50;68.40;;;;;;5083727;28;20634;-75
2023/09/17 12:41:11;;;;;;;2.00;1.40;;;28.30;68.50;;;;;;5081773;28;20625;-74
2023/09/17 12:43:37;;;;;;;4.73;1.70;;;28.20;69.50;;;;;;5075609;28;20640;-80
2023/09/17 12:46:06;;;;;;;4.93;1.83;;;28.40;69.50;;;;;;5075757;28;20617;-79
2023/09/17 12:48:35;;;;;;;3.93;2.40;;;28.40;70.90;;;;;;5076959;28;21176;-77
2023/09/17 12:51:04;;;;;;;2.90;1.90;;;28.40;68.90;;;;;;5080016;28;20629;-79
2023/09/17 12:53:35;;;;;;;1.90;1.70;;;28.30;69.30;;;;;;5076459;28;20661;-78
2023/09/17 12:56:11;;;;;;;2.90;2.07;;;28.40;70.20;;;;;;5078958;28;20628;-79
2023/09/17 12:58:38;;;;;;;5.10;2.20;;;28.50;71.30;;;;;;5078673;28;20621;-78
2023/09/17 13:01:11;;;;;;;2.27;1.93;;;28.60;70.60;;;;;;5075987;28;21081;-78